createdAt,value
2023-04-18T00:01:11.674Z,34.20
2023-04-18T00:05:13.278Z,35.00
2023-04-18T00:09:14.751Z,35.71
2023-04-18T00:13:18.310Z,35.10
2023-04-18T00:17:21.106Z,34.30
2023-04-18T00:21:22.687Z,35.03
2023-04-18T00:25:24.123Z,33.49
2023-04-18T00:29:25.476Z,34.48
2023-04-18T00:33:26.886Z,34.83
2023-04-18T00:37:29.687Z,34.85
2023-04-18T00:41:31.229Z,35.50
2023-04-18T00:45:32.596Z,35.11
2023-04-18T00:49:34.000Z,35.24
2023-04-18T00:53:36.561Z,35.40
2023-04-18T00:57:38.199Z,35.42
2023-04-18T01:01:40.123Z,35.19
2023-04-18T01:05:41.645Z,34.26
2023-04-18T01:09:44.306Z,33.90
2023-04-18T01:14:05.960Z,35.46
2023-04-18T01:18:08.915Z,36.01
2023-04-18T01:22:13.197Z,34.17
2023-04-18T01:26:14.923Z,35.40
2023-04-18T01:30:16.258Z,35.02
2023-04-18T01:34:18.615Z,34.72
2023-04-18T01:38:19.981Z,34.83
2023-04-18T01:42:21.297Z,34.73
2023-04-18T01:46:22.686Z,35.47
2023-04-18T01:50:24.248Z,34.96
2023-04-18T01:54:25.680Z,36.01
2023-04-18T01:58:27.112Z,35.42
2023-04-18T02:02:28.552Z,35.21
2023-04-18T02:06:30.789Z,35.77
2023-04-18T02:10:32.157Z,36.19
2023-04-18T02:14:36.134Z,35.64
2023-04-18T02:18:40.046Z,35.16
2023-04-18T02:22:41.450Z,36.65
2023-04-18T02:26:44.076Z,36.52
2023-04-18T02:30:45.383Z,35.52
2023-04-18T02:34:46.696Z,35.55
2023-04-18T02:38:47.990Z,35.77
2023-04-18T02:42:49.314Z,35.66
2023-04-18T02:46:50.643Z,36.08
2023-04-18T02:50:52.275Z,35.64
2023-04-18T02:54:53.614Z,34.77
2023-04-18T02:58:54.876Z,35.68
2023-04-18T03:02:56.355Z,35.29
2023-04-18T03:06:59.266Z,34.43
2023-04-18T03:11:00.852Z,34.66
2023-04-18T03:15:02.204Z,35.17
2023-04-18T03:19:03.502Z,36.68
2023-04-18T03:23:05.301Z,36.15
2023-04-18T03:27:06.710Z,37.56
2023-04-18T03:31:08.180Z,37.08
2023-04-18T03:35:09.656Z,37.46
2023-04-18T03:39:10.990Z,38.53
2023-04-18T03:43:12.313Z,38.03
2023-04-18T03:47:14.656Z,38.04
2023-04-18T03:51:17.066Z,38.33
2023-04-18T03:55:19.601Z,37.23
2023-04-18T03:59:20.971Z,38.03
2023-04-18T04:03:22.374Z,38.27
2023-04-18T04:07:23.733Z,39.17
2023-04-18T04:11:25.378Z,38.74
2023-04-18T04:15:26.753Z,39.41
2023-04-18T04:19:28.065Z,37.46
2023-04-18T04:23:29.447Z,38.53
2023-04-18T04:27:30.848Z,38.87
2023-04-18T04:31:32.252Z,39.07
2023-04-18T04:35:36.538Z,37.24
2023-04-18T04:39:37.895Z,37.90
2023-04-18T04:43:41.089Z,37.34
2023-04-18T04:47:42.466Z,37.82
2023-04-18T04:51:44.276Z,38.42
2023-04-18T04:55:45.721Z,39.26
2023-04-18T04:59:47.095Z,37.41
2023-04-18T05:03:49.842Z,37.42
2023-04-18T05:07:51.325Z,37.13
2023-04-18T05:11:52.750Z,38.16
2023-04-18T05:15:54.221Z,38.12
2023-04-18T05:19:55.580Z,37.93
2023-04-18T05:23:56.948Z,38.99
2023-04-18T05:28:00.359Z,39.19
2023-04-18T05:32:03.342Z,39.64
2023-04-18T05:36:05.288Z,42.23
2023-04-18T05:40:08.150Z,39.92
2023-04-18T05:44:09.568Z,38.76
2023-04-18T05:48:11.456Z,41.22
2023-04-18T05:52:12.849Z,40.45
2023-04-18T05:56:14.343Z,39.90
2023-04-18T06:00:17.140Z,39.70
2023-04-18T06:04:20.256Z,40.98
2023-04-18T06:08:22.038Z,41.23
2023-04-18T06:12:24.244Z,38.73
2023-04-18T06:16:25.921Z,38.53
2023-04-18T06:20:27.311Z,36.73
2023-04-18T06:24:30.164Z,35.80
2023-04-18T06:28:32.855Z,36.27
2023-04-18T06:32:34.182Z,36.67
2023-04-18T06:36:35.656Z,36.45
2023-04-18T06:40:40.063Z,35.56
2023-04-18T06:44:43.153Z,32.97
2023-04-18T06:48:44.549Z,32.58
2023-04-18T06:52:45.977Z,37.09
2023-04-18T06:56:47.485Z,35.35
2023-04-18T07:00:51.863Z,34.05
2023-04-18T07:04:53.254Z,34.93
2023-04-18T07:08:59.909Z,32.58
2023-04-18T07:13:01.354Z,31.60
2023-04-18T07:17:02.854Z,31.03
2023-04-18T07:21:07.104Z,32.56
2023-04-18T07:25:08.940Z,34.18
2023-04-18T07:29:10.411Z,31.75
2023-04-18T07:33:11.794Z,29.09
2023-04-18T07:37:14.856Z,29.47
2023-04-18T07:41:16.437Z,31.44
2023-04-18T07:45:17.750Z,33.42
2023-04-18T07:49:19.218Z,32.39
2023-04-18T07:53:20.971Z,30.81
2023-04-18T07:57:22.395Z,29.09
2023-04-18T08:01:24.685Z,28.10
2023-04-18T08:05:26.208Z,33.15
2023-04-18T08:10:04.568Z,29.37
2023-04-18T08:14:04.066Z,32.29
2023-04-18T08:18:05.676Z,29.23
2023-04-18T08:22:10.623Z,30.00
2023-04-18T08:26:12.215Z,32.18
2023-04-18T08:30:14.042Z,33.45
2023-04-18T08:34:15.519Z,31.53
2023-04-18T08:38:18.424Z,27.32
2023-04-18T08:42:19.803Z,27.73
2023-04-18T08:46:21.298Z,29.22
2023-04-18T08:50:23.132Z,31.76
2023-04-18T08:54:27.251Z,32.81
2023-04-18T08:58:32.150Z,33.97
2023-04-18T09:02:44.477Z,31.43
2023-04-18T09:06:55.190Z,33.50
2023-04-18T09:11:26.600Z,30.70
2023-04-18T09:15:29.731Z,31.38
2023-04-18T09:19:33.851Z,30.86
2023-04-18T09:23:35.903Z,32.16
2023-04-18T09:27:39.825Z,31.25
2023-04-18T09:32:00.805Z,31.71
2023-04-18T09:36:21.876Z,30.83
2023-04-18T09:40:24.020Z,29.26
2023-04-18T09:44:25.542Z,30.65
2023-04-18T09:48:27.067Z,30.07
2023-04-18T09:52:33.461Z,29.83
2023-04-18T09:56:37.849Z,27.99
2023-04-18T10:00:40.120Z,32.47
2023-04-18T10:04:46.049Z,29.71
2023-04-18T10:08:50.808Z,29.59
2023-04-18T10:12:54.731Z,30.44
2023-04-18T10:16:57.471Z,28.03
2023-04-18T10:21:03.575Z,30.50
2023-04-18T10:25:06.124Z,26.71
2023-04-18T10:29:09.281Z,27.52
2023-04-18T10:33:33.806Z,25.95
2023-04-18T10:37:49.780Z,28.14
2023-04-18T10:41:51.636Z,21.98
2023-04-18T10:46:24.011Z,20.33
2023-04-18T10:50:29.657Z,22.50
2023-04-18T10:54:55.998Z,22.96
2023-04-18T10:59:02.187Z,28.58
2023-04-18T11:03:03.889Z,27.43
2023-04-18T11:07:05.549Z,30.32
2023-04-18T11:11:09.479Z,29.93
2023-04-18T11:15:22.293Z,29.97
2023-04-18T11:19:24.105Z,29.12
2023-04-18T11:23:25.603Z,28.31
2023-04-18T11:27:27.119Z,29.17
2023-04-18T11:31:28.594Z,29.79
2023-04-18T11:35:30.440Z,31.79
2023-04-18T11:39:38.170Z,31.49
2023-04-18T11:43:42.898Z,34.09
2023-04-18T11:47:46.216Z,30.12
2023-04-18T11:51:47.958Z,28.71
2023-04-18T11:55:56.009Z,29.00
2023-04-18T11:59:59.357Z,28.76
2023-04-18T12:04:05.811Z,30.48
2023-04-18T12:08:13.227Z,28.64
2023-04-18T12:12:19.182Z,27.00
2023-04-18T12:16:20.646Z,26.34
2023-04-18T12:20:24.696Z,27.39
2023-04-18T12:24:28.709Z,26.64
2023-04-18T12:28:30.923Z,25.91
2023-04-18T12:32:32.268Z,25.61
2023-04-18T12:36:33.670Z,28.42
2023-04-18T12:40:35.095Z,27.22
2023-04-18T12:44:36.468Z,26.12
2023-04-18T12:48:40.119Z,26.70
2023-04-18T12:52:42.244Z,26.29
2023-04-18T12:56:47.843Z,28.13
2023-04-18T13:00:49.327Z,26.88
2023-04-18T13:04:51.433Z,26.27
2023-04-18T13:08:52.812Z,27.07
2023-04-18T13:12:54.124Z,26.22
2023-04-18T13:16:55.587Z,26.90
2023-04-18T13:20:56.886Z,25.61
2023-04-18T13:24:58.243Z,25.44
2023-04-18T13:28:59.549Z,25.23
2023-04-18T13:33:01.102Z,25.68
2023-04-18T13:37:02.532Z,24.58
2023-04-18T13:41:12.171Z,26.12
2023-04-18T13:45:14.766Z,27.92
2023-04-18T13:49:16.191Z,27.70
2023-04-18T13:53:18.312Z,29.05
2023-04-18T13:57:19.775Z,26.92
2023-04-18T14:01:22.171Z,28.16
2023-04-18T14:05:29.284Z,26.35
2023-04-18T14:09:30.578Z,26.12
2023-04-18T14:13:32.324Z,26.70
2023-04-18T14:17:33.733Z,26.30
2023-04-18T14:21:35.807Z,26.06
2023-04-18T14:25:37.129Z,25.96
2023-04-18T14:29:38.458Z,26.56
2023-04-18T14:33:40.395Z,26.65
2023-04-18T14:37:42.149Z,25.64
2023-04-18T14:41:43.522Z,25.64
2023-04-18T14:45:44.916Z,25.40
2023-04-18T14:49:46.177Z,25.35
2023-04-18T14:53:48.730Z,25.59
2023-04-18T14:57:50.161Z,27.90
2023-04-18T15:01:51.942Z,29.88
2023-04-18T15:05:53.689Z,28.84
2023-04-18T15:09:55.049Z,28.21
2023-04-18T15:13:56.908Z,28.68
2023-04-18T15:17:58.319Z,26.47
2023-04-18T15:21:59.827Z,26.00
2023-04-18T15:26:01.229Z,26.73
2023-04-18T15:30:03.584Z,27.96
2023-04-18T15:34:04.987Z,28.19
2023-04-18T15:38:09.202Z,29.42
2023-04-18T15:42:10.591Z,29.06
2023-04-18T15:46:12.242Z,28.88
2023-04-18T15:50:15.942Z,28.73
2023-04-18T15:54:17.347Z,29.35
2023-04-18T15:58:20.484Z,28.57
2023-04-18T16:02:21.916Z,29.00
2023-04-18T16:06:23.476Z,29.45
2023-04-18T16:10:24.858Z,28.43
2023-04-18T16:14:26.170Z,29.60
2023-04-18T16:18:27.541Z,29.77
2023-04-18T16:22:28.860Z,27.85
2023-04-18T16:26:30.323Z,28.92
2023-04-18T16:30:31.732Z,26.92
2023-04-18T16:34:34.148Z,27.15
2023-04-18T16:38:35.645Z,26.57
2023-04-18T16:42:37.025Z,28.17
2023-04-18T16:46:38.474Z,29.34
2023-04-18T16:50:39.887Z,27.39
2023-04-18T16:54:41.428Z,28.62
2023-04-18T16:58:42.716Z,28.96
2023-04-18T17:02:44.250Z,29.99
2023-04-18T17:06:46.615Z,27.94
2023-04-18T17:10:51.843Z,29.05
2023-04-18T17:14:53.255Z,29.44
2023-04-18T17:18:54.564Z,29.21
2023-04-18T17:22:57.126Z,30.58
2023-04-18T17:26:58.544Z,29.80
2023-04-18T17:31:01.833Z,27.76
2023-04-18T17:35:06.092Z,28.96
2023-04-18T17:39:07.662Z,30.11
2023-04-18T17:43:09.089Z,28.69
2023-04-18T17:47:10.551Z,29.18
2023-04-18T17:51:11.953Z,29.05
2023-04-18T17:55:13.430Z,30.53
2023-04-18T17:59:14.815Z,30.32
2023-04-18T18:03:17.076Z,29.38
2023-04-18T18:07:18.657Z,31.02
2023-04-18T18:11:20.815Z,29.82
2023-04-18T18:15:23.987Z,30.15
2023-04-18T18:19:25.858Z,30.37
2023-04-18T18:23:27.364Z,29.90
2023-04-18T18:27:28.645Z,30.84
2023-04-18T18:31:30.061Z,31.26
2023-04-18T18:35:31.439Z,31.33
2023-04-18T18:39:32.804Z,30.85
2023-04-18T18:43:34.301Z,30.98
2023-04-18T18:47:36.903Z,31.88
2023-04-18T18:51:40.865Z,31.47
2023-04-18T18:55:42.588Z,32.18
2023-04-18T18:59:43.936Z,32.84
2023-04-18T19:03:45.453Z,32.38
2023-04-18T19:07:47.056Z,31.49
2023-04-18T19:11:48.383Z,31.63
2023-04-18T19:15:49.980Z,30.67
2023-04-18T19:19:52.353Z,31.62
2023-04-18T19:23:53.819Z,30.68
2023-04-18T19:27:55.279Z,31.00
2023-04-18T19:31:56.672Z,31.30
2023-04-18T19:35:58.489Z,31.47
2023-04-18T19:39:59.791Z,31.00
2023-04-18T19:44:01.214Z,30.74
2023-04-18T19:48:02.647Z,30.65
2023-04-18T19:52:04.185Z,30.95
2023-04-18T19:56:05.717Z,31.59
2023-04-18T20:00:09.056Z,30.17
2023-04-18T20:04:10.653Z,30.71
2023-04-18T20:08:12.230Z,31.06
2023-04-18T20:12:13.708Z,30.76
2023-04-18T20:16:16.718Z,29.54
2023-04-18T20:20:18.150Z,29.79
2023-04-18T20:24:21.101Z,29.85
2023-04-18T20:28:22.455Z,29.90
2023-04-18T20:32:23.774Z,30.49
2023-04-18T20:36:25.230Z,29.88
2023-04-18T20:40:28.099Z,29.48
2023-04-18T20:44:30.902Z,30.20
2023-04-18T20:48:32.213Z,29.69
2023-04-18T20:52:33.559Z,32.11
2023-04-18T20:56:36.405Z,31.82
2023-04-18T21:00:37.827Z,33.85
2023-04-18T21:04:39.247Z,33.50
2023-04-18T21:08:40.796Z,32.73
2023-04-18T21:12:42.178Z,32.90
2023-04-18T21:16:43.750Z,34.14
2023-04-18T21:20:45.148Z,32.85
2023-04-18T21:24:47.225Z,31.99
2023-04-18T21:28:53.211Z,33.33
2023-04-18T21:32:54.598Z,32.63
2023-04-18T21:36:57.642Z,32.78
2023-04-18T21:40:58.929Z,31.93
2023-04-18T21:45:00.241Z,31.52
2023-04-18T21:49:01.648Z,32.91
2023-04-18T21:53:02.931Z,32.31
2023-04-18T21:57:05.791Z,33.63
2023-04-18T22:01:07.269Z,34.02
2023-04-18T22:05:08.951Z,34.30
2023-04-18T22:09:11.669Z,34.15
2023-04-18T22:13:13.080Z,35.21
2023-04-18T22:17:14.381Z,34.48
2023-04-18T22:21:15.981Z,32.95
2023-04-18T22:25:17.626Z,33.33
2023-04-18T22:29:19.000Z,33.94
2023-04-18T22:33:20.306Z,34.58
2023-04-18T22:37:21.704Z,33.41
2023-04-18T22:41:23.095Z,34.19
2023-04-18T22:45:24.397Z,33.29
2023-04-18T22:49:26.119Z,34.06
2023-04-18T22:53:27.737Z,33.21
2023-04-18T22:57:29.111Z,34.73
2023-04-18T23:01:30.506Z,33.86
2023-04-18T23:05:32.191Z,34.87
2023-04-18T23:09:33.541Z,35.24
2023-04-18T23:13:34.895Z,34.65
2023-04-18T23:17:36.244Z,34.83
2023-04-18T23:21:37.632Z,33.67
2023-04-18T23:25:39.166Z,35.97
2023-04-18T23:29:40.611Z,35.89
2023-04-18T23:33:41.898Z,33.76
2023-04-18T23:37:43.568Z,33.86
2023-04-18T23:41:45.534Z,34.14
2023-04-18T23:45:46.850Z,34.63
2023-04-18T23:49:48.216Z,33.53
2023-04-18T23:53:49.569Z,33.85
2023-04-18T23:57:50.921Z,33.34
